D/T METAR WX W/DIR W/SPE G/SPE TEMP DEWP
19/03/19 02:50 EGQL 190250Z 27008KT CAVOK 04/03 Q1020 BLU W (270°) 9.2mph 4°C 3°C
19/03/19 01:50 EGQL 190150Z 27007KT CAVOK 03/03 Q1020 BLU W (270°) 8.1mph 3°C 3°C
19/03/19 00:50 EGQL 190050Z 24004KT CAVOK 03/02 Q1020 BLU WSW (240°) 4.6mph 3°C 2°C
18/03/19 23:50 EGQL 182350Z 26005KT CAVOK 02/01 Q1020 BLU W (260°) 5.8mph 2°C 1°C
18/03/19 22:50 EGQL 182250Z 28005KT CAVOK 05/04 Q1020 BLU W (280°) 5.8mph 5°C 4°C
18/03/19 21:50 EGQL 182150Z 26006KT 9999 BKN037 05/03 Q1020 BLU W (260°) 6.9mph 5°C 3°C
18/03/19 20:50 EGQL 182050Z 27004KT 9999 OVC039 06/04 Q1020 BLU W (270°) 4.6mph 6°C 4°C
18/03/19 19:50 EGQL 181950Z 26003KT 9999 BKN042 05/03 Q1019 BLU W (260°) 3.5mph 5°C 3°C
18/03/19 18:50 EGQL 181850Z 18006KT 9999 OVC041 07/04 Q1019 BLU S (180°) 6.9mph 7°C 4°C
18/03/19 17:50 EGQL 181750Z 24005KT 9999 OVC041 08/04 Q1018 BLU WSW (240°) 5.8mph 8°C 4°C
18/03/19 16:50 EGQL 181650Z 24006KT 9999 BKN041 09/04 Q1017 BLU WSW (240°) 6.9mph 9°C 4°C
18/03/19 15:50 EGQL 181550Z 26006KT 9999 FEW032 BKN039 09/03 Q1017 BLU W (260°) 6.9mph 9°C 3°C
18/03/19 14:50 EGQL 181450Z 26007KT 9999 BKN040 09/03 Q1016 BLU W (260°) 8.1mph 9°C 3°C
18/03/19 13:50 EGQL 181350Z 26004KT 9999 BKN035 09/03 Q1016 BLU W (260°) 4.6mph 9°C 3°C
18/03/19 12:50 EGQL 181250Z 26007KT 9999 FEW027 BKN040 09/03 Q1016 BLU W (260°) 8.1mph 9°C 3°C
18/03/19 11:50 EGQL 181150Z 24005KT 9999 SCT027 09/02 Q1016 BLU WSW (240°) 5.8mph 9°C 2°C
18/03/19 10:50 EGQL 181050Z 26006KT CAVOK 08/02 Q1016 BLU W (260°) 6.9mph 8°C 2°C
18/03/19 09:50 EGQL 180950Z 28004KT CAVOK 07/02 Q1015 BLU W (280°) 4.6mph 7°C 2°C
18/03/19 08:50 EGQL 180850Z 25004KT CAVOK 05/00 Q1015 BLU WSW (250°) 4.6mph 5°C 0°C
18/03/19 07:50 EGQL 180750Z 29004KT CAVOK 03/M00 Q1014 BLU WNW (290°) 4.6mph 3°C 0°C
18/03/19 06:50 EGQL 180650Z 29004KT CAVOK 01/M02 Q1014 BLU WNW (290°) 4.6mph 1°C -2°C
18/03/19 05:50 EGQL 180550Z 27005KT CAVOK 01/M02 Q1014 BLU W (270°) 5.8mph 1°C -2°C
18/03/19 04:50 EGQL 180450Z 22005KT CAVOK 00/M03 Q1014 BLU SW (220°) 5.8mph 0°C -3°C
18/03/19 03:50 EGQL 180350Z 24006KT CAVOK 01/M03 Q1013 BLU WSW (240°) 6.9mph 1°C -3°C
18/03/19 02:50 EGQL 180250Z 29010KT CAVOK 04/M03 Q1013 BLU WNW (290°) 11.5mph 4°C -3°C
18/03/19 01:50 EGQL 180150Z 28008KT CAVOK 04/M03 Q1012 BLU W (280°) 9.2mph 4°C -3°C
18/03/19 00:50 EGQL 180050Z 29010KT CAVOK 04/M03 Q1012 BLU WNW (290°) 11.5mph 4°C -3°C
17/03/19 23:50 EGQL 172350Z 28009KT CAVOK 03/M03 Q1011 BLU W (280°) 10.4mph 3°C -3°C
17/03/19 22:50 EGQL 172250Z 29010KT CAVOK 04/M02 Q1010 BLU WNW (290°) 11.5mph 4°C -2°C
17/03/19 21:50 EGQL 172150Z 29008KT CAVOK 04/M02 Q1010 BLU WNW (290°) 9.2mph 4°C -2°C
17/03/19 20:50 EGQL 172050Z 32006KT CAVOK 04/M02 Q1009 BLU NW (320°) 6.9mph 4°C -2°C
17/03/19 19:50 EGQL 171950Z 31006KT 9999 FEW040 05/M01 Q1008 BLU NW (310°) 6.9mph 5°C -1°C
17/03/19 18:50 EGQL 171850Z 31008KT 9999 FEW036 05/00 Q1007 BLU NW (310°) 9.2mph 5°C 0°C
17/03/19 17:50 EGQL 171750Z 32006KT 9999 SCT041 06/M00 Q1005 BLU NW (320°) 6.9mph 6°C 0°C
17/03/19 16:50 EGQL 171650Z 30008KT 9999 SCT042 BKN050 08/01 Q1004 BLU WNW (300°) 9.2mph 8°C 1°C
17/03/19 15:50 EGQL 171550Z 31012KT 9999 FEW045 BKN060 08/M00 Q1002 BLU NW (310°) 13.8mph 8°C 0°C
17/03/19 14:50 EGQL 171450Z 34007KT 9999 BKN039 08/01 Q1001 BLU NNW (340°) 8.1mph 8°C 1°C
17/03/19 13:50 EGQL 171350Z 31012G23KT 9999 FEW034 SCT180 08/01 Q0999 BLU NW (310°) 13.8mph 26.5mph 8°C 1°C
17/03/19 12:50 EGQL 171250Z 30011KT CAVOK 07/01 Q0997 BLU WNW (300°) 12.7mph 7°C 1°C
17/03/19 11:50 EGQL 171150Z 29017KT 9999 FEW034 BKN180 08/01 Q0996 BLU WNW (290°) 19.6mph 8°C 1°C
17/03/19 10:50 EGQL 171050Z 29017KT CAVOK 07/01 Q0995 BLU WNW (290°) 19.6mph 7°C 1°C
17/03/19 09:50 EGQL 170950Z 28019KT CAVOK 06/01 Q0994 BLU W (280°) 21.9mph 6°C 1°C
17/03/19 08:50 EGQL 170850Z 27014KT CAVOK 04/M00 Q0992 BLU W (270°) 16.1mph 4°C 0°C
17/03/19 07:50 EGQL 170750Z 26012KT CAVOK 02/M00 Q0992 BLU W (260°) 13.8mph 2°C 0°C
17/03/19 06:50 EGQL 170650Z 26010KT CAVOK 02/M00 Q0991 BLU W (260°) 11.5mph 2°C 0°C
17/03/19 05:50 EGQL 170550Z 26011KT CAVOK 03/M01 Q0990 BLU W (260°) 12.7mph 3°C -1°C
17/03/19 04:50 EGQL 170450Z 25013KT CAVOK 01/M01 Q0989 BLU WSW (250°) 15.0mph 1°C -1°C
17/03/19 03:50 EGQL 170350Z 28016KT CAVOK 03/M01 Q0989 BLU W (280°) 18.4mph 3°C -1°C
17/03/19 02:50 EGQL 170250Z 27014KT CAVOK 03/M00 Q0988 BLU W (270°) 16.1mph 3°C 0°C
17/03/19 01:50 EGQL 170150Z 27014KT CAVOK 03/M01 Q0988 BLU W (270°) 16.1mph 3°C -1°C
17/03/19 00:50 EGQL 170050Z 27013KT CAVOK 03/M01 Q0987 BLU W (270°) 15.0mph 3°C -1°C
16/03/19 23:50 EGQL 162350Z 27012KT CAVOK 03/M00 Q0987 BLU W (270°) 13.8mph 3°C 0°C
16/03/19 22:50 EGQL 162250Z 26011KT CAVOK 03/00 Q0987 BLU W (260°) 12.7mph 3°C 0°C
16/03/19 21:50 EGQL 162150Z 27015KT CAVOK 03/00 Q0986 BLU W (270°) 17.3mph 3°C 0°C
16/03/19 20:50 EGQL 162050Z 29013KT CAVOK 03/00 Q0985 BLU WNW (290°) 15.0mph 3°C 0°C
16/03/19 19:50 EGQL 161950Z 29014KT CAVOK 03/01 Q0985 BLU WNW (290°) 16.1mph 3°C 1°C
16/03/19 18:50 EGQL 161850Z 29013KT 9999 -RA FEW029 BKN050 03/01 Q0983 BLU -RA WNW (290°) 15.0mph 3°C 1°C
16/03/19 17:50 EGQL 161750Z 31010KT 9999 -RA FEW010 SCT015 BKN048 03/02 Q0982 WHT -RA NW (310°) 11.5mph 3°C 2°C
16/03/19 17:25 EGQL 161725Z 31011KT 8000 -RA FEW006 BKN011 02/02 Q0981 GRN -RA NW (310°) 12.7mph 2°C 2°C
16/03/19 16:50 EGQL 161650Z 31008KT 4000 RASN BKN006 SCT016 02/01 Q0981 YLO1 RA SN NW (310°) 9.2mph 2°C 1°C
16/03/19 15:50 EGQL 161550Z 36008KT 5000 -RA OVC005 02/02 Q0980 YLO1 -RA N (360°) 9.2mph 2°C 2°C
16/03/19 15:23 EGQL 161523Z 04012KT 9999 -RA BKN006 BKN015 03/02 Q0979 YLO1 -RA NE (40°) 13.8mph 3°C 2°C
16/03/19 14:50 EGQL 161450Z 04014KT 9000 -RA SCT004 BKN015 02/02 Q0979 YLO2 -RA NE (40°) 16.1mph 2°C 2°C
16/03/19 13:50 EGQL 161350Z 05012KT 8000 RASN BKN006 BKN013 02/01 Q0981 YLO1 RA SN NE (50°) 13.8mph 2°C 1°C
16/03/19 12:50 EGQL 161250Z 08012KT 5000 RASN BKN006 BKN009 02/02 Q0983 YLO1 RA SN E (80°) 13.8mph 2°C 2°C
16/03/19 11:50 EGQL 161150Z 10018KT 5000 RASN BKN006 BKN013 02/01 Q0985 YLO1 RA SN E (100°) 20.7mph 2°C 1°C
16/03/19 10:50 EGQL 161050Z 11015KT 8000 RA BKN006 BKN013 02/02 Q0987 YLO1 RA ESE (110°) 17.3mph 2°C 2°C
16/03/19 09:50 EGQL 160950Z 12014KT 8000 RA BKN006 SCT014 02/02 Q0989 YLO1 RA ESE (120°) 16.1mph 2°C 2°C
16/03/19 08:50 EGQL 160850Z 14009KT 6000 RASN BKN006 BKN020 02/01 Q0991 YLO1 RA SN SE (140°) 10.4mph 2°C 1°C
16/03/19 07:50 EGQL 160750Z 14007KT 5000 RA BKN006 SCT014 02/01 Q0993 YLO1 RA SE (140°) 8.1mph 2°C 1°C
16/03/19 06:50 EGQL 160650Z 17006KT 5000 RA BKN009 SCT021 03/02 Q0994 GRN RA S (170°) 6.9mph 3°C 2°C
16/03/19 05:50 EGQL 160550Z 32001KT 7000 RA BKN012 04/02 Q0995 GRN RA NW (320°) 1.2mph 4°C 2°C
16/03/19 04:50 EGQL 160450Z 15002KT 9999 BKN038 04/02 Q0996 BLU SSE (150°) 2.3mph 4°C 2°C
16/03/19 03:50 EGQL 160350Z 25006KT CAVOK 04/01 Q0997 BLU WSW (250°) 6.9mph 4°C 1°C
16/03/19 02:50 EGQL 160250Z 26009KT CAVOK 04/01 Q0997 BLU W (260°) 10.4mph 4°C 1°C
16/03/19 01:50 EGQL 160150Z 24009KT CAVOK 04/01 Q0998 BLU WSW (240°) 10.4mph 4°C 1°C
16/03/19 00:50 EGQL 160050Z 24011KT CAVOK 04/01 Q0999 BLU WSW (240°) 12.7mph 4°C 1°C
15/03/19 23:50 EGQL 152350Z 26016KT CAVOK 04/00 Q0999 BLU W (260°) 18.4mph 4°C 0°C
15/03/19 22:50 EGQL 152250Z 26012KT CAVOK 04/M00 Q0999 BLU W (260°) 13.8mph 4°C 0°C
15/03/19 21:50 EGQL 152150Z 25018KT CAVOK 04/00 Q1000 BLU WSW (250°) 20.7mph 4°C 0°C
15/03/19 20:50 EGQL 152050Z 27015KT CAVOK 04/M01 Q0999 BLU W (270°) 17.3mph 4°C -1°C
15/03/19 19:50 EGQL 151950Z 28018KT CAVOK 05/M00 Q0999 BLU W (280°) 20.7mph 5°C 0°C
15/03/19 18:50 EGQL 151850Z 27015KT 9999 FEW040 04/00 Q0999 BLU W (270°) 17.3mph 4°C 0°C
15/03/19 17:50 EGQL 151750Z 27024KT 9999 FEW040 05/00 Q0998 BLU W (270°) 27.6mph 5°C 0°C
15/03/19 16:50 EGQL 151650Z 27023KT 9999 FEW046 07/00 Q0997 BLU W (270°) 26.5mph 7°C 0°C
15/03/19 15:50 EGQL 151550Z 28024KT 9999 FEW035 07/01 Q0996 BLU W (280°) 27.6mph 7°C 1°C
15/03/19 14:50 EGQL 151450Z 27024KT 9999 FEW025 07/01 Q0995 BLU W (270°) 27.6mph 7°C 1°C
15/03/19 13:50 EGQL 151350Z 29026G36KT 9999 FEW037 07/00 Q0995 BLU WNW (290°) 29.9mph 41.4mph 7°C 0°C
15/03/19 12:50 EGQL 151250Z AUTO 28026KT 9999 NCD 07/00 Q0994 W (280°) 29.9mph 7°C 0°C
15/03/19 11:50 EGQL 151150Z 29016G27KT 9999 FEW038 09/01 Q0993 BLU WNW (290°) 18.4mph 31.1mph 9°C 1°C
15/03/19 10:50 EGQL 151050Z 28029G40KT 9999 FEW045 08/M00 Q0993 BLU W (280°) 33.4mph 46.0mph 8°C 0°C
15/03/19 09:50 EGQL 150950Z 27023G36KT 9999 FEW030 08/00 Q0992 BLU W (270°) 26.5mph 41.4mph 8°C 0°C
15/03/19 08:50 EGQL 150850Z 28024G34KT 9999 FEW025 08/01 Q0991 BLU W (280°) 27.6mph 39.1mph 8°C 1°C
15/03/19 07:50 EGQL 150750Z 28019KT 9999 FEW020 07/01 Q0990 BLU W (280°) 21.9mph 7°C 1°C
15/03/19 06:50 EGQL 150650Z 28020KT CAVOK 07/02 Q0989 BLU W (280°) 23.0mph 7°C 2°C
15/03/19 05:50 EGQL 150550Z 27017G27KT 9999 FEW030 SCT050 07/05 Q0988 BLU W (270°) 19.6mph 31.1mph 7°C 5°C
15/03/19 04:50 EGQL 150450Z 26018KT 9999 FEW013 SCT021 BKN042 07/05 Q0987 WHT W (260°) 20.7mph 7°C 5°C
15/03/19 03:50 EGQL 150350Z 26014KT 9999 OVC014 07/05 Q0988 GRN W (260°) 16.1mph 7°C 5°C
15/03/19 02:50 EGQL 150250Z 24015KT 9999 OVC013 07/05 Q0989 GRN WSW (240°) 17.3mph 7°C 5°C
15/03/19 01:50 EGQL 150150Z 25008KT 9999 BKN014 06/04 Q0991 GRN WSW (250°) 9.2mph 6°C 4°C
15/03/19 00:50 EGQL 150050Z 25015KT 9999 SCT020 BKN037 06/04 Q0992 WHT WSW (250°) 17.3mph 6°C 4°C
14/03/19 23:50 EGQL 142350Z 24012KT 9999 SCT034 BKN200 06/04 Q0994 BLU WSW (240°) 13.8mph 6°C 4°C
14/03/19 22:50 EGQL 142250Z 25011KT CAVOK 06/03 Q0995 BLU WSW (250°) 12.7mph 6°C 3°C
14/03/19 21:50 EGQL 142150Z 23010KT CAVOK 06/03 Q0996 BLU SW (230°) 11.5mph 6°C 3°C
14/03/19 20:50 EGQL 142050Z 26011KT 9999 FEW042 BKN190 06/02 Q0996 BLU W (260°) 12.7mph 6°C 2°C
14/03/19 19:50 EGQL 141950Z 26014KT CAVOK 06/02 Q0996 BLU W (260°) 16.1mph 6°C 2°C
14/03/19 18:50 EGQL 141850Z 26016KT 9999 SCT046 BKN220 07/02 Q0996 BLU W (260°) 18.4mph 7°C 2°C
14/03/19 17:50 EGQL 141750Z 27014KT CAVOK 08/02 Q0996 BLU W (270°) 16.1mph 8°C 2°C
14/03/19 16:50 EGQL 141650Z 27019KT 9999 FEW042 SCT250 09/02 Q0995 BLU W (270°) 21.9mph 9°C 2°C
14/03/19 15:50 EGQL 141550Z 29020G30KT CAVOK 10/02 Q0995 BLU WNW (290°) 23.0mph 34.5mph 10°C 2°C
14/03/19 14:50 EGQL 141450Z 29012KT CAVOK 10/01 Q0994 BLU WNW (290°) 13.8mph 10°C 1°C
14/03/19 13:50 EGQL 141350Z 26015KT 9999 -SHRA FEW041 BKN050 10/03 Q0994 BLU -SHRA W (260°) 17.3mph 10°C 3°C
14/03/19 13:08 EGQL 141308Z 28017KT CAVOK 10/02 Q0994 BLU W (280°) 19.6mph 10°C 2°C
14/03/19 11:50 EGQL 141150Z 29014KT 9999 BKN044 10/02 Q0992 BLU WNW (290°) 16.1mph 10°C 2°C
14/03/19 10:50 EGQL 141050Z 30015G25KT 9999 FEW040 10/03 Q0991 BLU WNW (300°) 17.3mph 28.8mph 10°C 3°C
14/03/19 09:50 EGQL 140950Z 30011G21KT 9999 FEW036 09/03 Q0990 BLU WNW (300°) 12.7mph 24.2mph 9°C 3°C
14/03/19 08:50 EGQL 140850Z 28014KT CAVOK 08/04 Q0989 BLU W (280°) 16.1mph 8°C 4°C
14/03/19 07:50 EGQL 140750Z 26012KT CAVOK 06/04 Q0988 BLU W (260°) 13.8mph 6°C 4°C
14/03/19 06:50 EGQL 140650Z 27010KT CAVOK 07/05 Q0988 BLU W (270°) 11.5mph 7°C 5°C
14/03/19 05:50 EGQL 140550Z 29014KT 9999 RA SCT032 OVC045 07/05 Q0987 BLU RA WNW (290°) 16.1mph 7°C 5°C
14/03/19 04:50 EGQL 140450Z 27011KT 9999 -RA BKN050 07/06 Q0986 BLU -RA W (270°) 12.7mph 7°C 6°C
14/03/19 03:50 EGQL 140350Z 26016KT 9999 RA OVC048 07/06 Q0987 BLU RA W (260°) 18.4mph 7°C 6°C
14/03/19 02:50 EGQL 140250Z 25019KT 9999 BKN048 OVC090 08/06 Q0988 BLU WSW (250°) 21.9mph 8°C 6°C
14/03/19 01:50 EGQL 140150Z 26017KT 9999 FEW014 BKN060 08/06 Q0989 BLU W (260°) 19.6mph 8°C 6°C
14/03/19 00:50 EGQL 140050Z 25020KT 9999 -RA SCT014 BKN080 08/06 Q0990 GRN -RA WSW (250°) 23.0mph 8°C 6°C
14/03/19 00:20 EGQL 140020Z 25019KT 9999 -RA SCT013 BKN090 07/06 Q0991 GRN -RA WSW (250°) 21.9mph 7°C 6°C
13/03/19 22:50 EGQL 132250Z 25018KT 9999 -RA SCT018 BKN110 07/05 Q0994 WHT -RA WSW (250°) 20.7mph 7°C 5°C
13/03/19 21:50 EGQL 132150Z 25012KT 9999 -RA BKN015 BKN032 06/05 Q0996 WHT -RA WSW (250°) 13.8mph 6°C 5°C
13/03/19 20:50 EGQL 132050Z 25018KT 9999 FEW040 SCT080 BKN140 06/03 Q0998 BLU WSW (250°) 20.7mph 6°C 3°C
13/03/19 19:50 EGQL 131950Z 24017KT CAVOK 07/02 Q1000 BLU WSW (240°) 19.6mph 7°C 2°C
13/03/19 18:50 EGQL 131850Z 26016KT CAVOK 07/01 Q1001 BLU W (260°) 18.4mph 7°C 1°C
13/03/19 17:50 EGQL 131750Z 28019KT 9999 -RA SCT045 BKN150 08/01 Q1000 BLU -RA W (280°) 21.9mph 8°C 1°C
13/03/19 16:50 EGQL 131650Z 27015KT 9999 SCT042 BKN180 09/02 Q1001 BLU W (270°) 17.3mph 9°C 2°C
13/03/19 15:50 EGQL 131550Z 29018KT 9999 FEW043 SCT150 10/02 Q1000 BLU WNW (290°) 20.7mph 10°C 2°C
13/03/19 14:50 EGQL 131450Z 30018KT CAVOK 11/02 Q0999 BLU WNW (300°) 20.7mph 11°C 2°C
13/03/19 13:50 EGQL 131350Z 30019G29KT 9999 FEW046 11/03 Q0999 BLU WNW (300°) 21.9mph 33.4mph 11°C 3°C
13/03/19 12:50 EGQL 131250Z AUTO 31015KT 9999 FEW042/// 11/02 Q0998 NW (310°) 17.3mph 11°C 2°C
13/03/19 11:50 EGQL 131150Z 30018G28KT 9999 FEW048 10/01 Q0998 BLU WNW (300°) 20.7mph 32.2mph 10°C 1°C
13/03/19 10:50 EGQL 131050Z 30016G28KT 9999 FEW040 10/02 Q0996 BLU WNW (300°) 18.4mph 32.2mph 10°C 2°C
13/03/19 09:50 EGQL 130950Z 31020G33KT CAVOK 08/02 Q0994 BLU NW (310°) 23.0mph 38.0mph 8°C 2°C
13/03/19 08:50 EGQL 130850Z 31015KT 9999 FEW030 08/01 Q0992 BLU NW (310°) 17.3mph 8°C 1°C
13/03/19 07:50 EGQL 130750Z 30015KT 9999 FEW030 07/00 Q0990 BLU WNW (300°) 17.3mph 7°C 0°C
13/03/19 06:50 EGQL 130650Z 29019G29KT CAVOK 06/01 Q0988 BLU WNW (290°) 21.9mph 33.4mph 6°C 1°C
13/03/19 05:50 EGQL 130550Z 29020KT CAVOK 07/01 Q0985 BLU WNW (290°) 23.0mph 7°C 1°C